Time;durP1;ratioP1;P1;durP2;ratioP2;P2;SDS_P1;SDS_P2;PMS_P1;PMS_P2;Temp;Humidity;BMP_temperature;BMP_pressure;BME280_temperature;BME280_humidity;BME280_pressure;Samples;Min_cycle;Max_cycle;Signal;HPM_P1;HPM_P2
2024/01/04 00:02:19;;;;;;;4.88;1.92;;;;;;;;;;5042958;28;20052;-77
2024/01/04 00:04:45;;;;;;;2.72;1.63;;;;;;;;;;5046402;28;20056;-77
2024/01/04 00:07:12;;;;;;;7.10;2.10;;;;;;;;;;5044306;28;20040;-77
2024/01/04 00:09:38;;;;;;;3.75;1.73;;;;;;;;;;5060249;28;20488;-77
2024/01/04 00:12:04;;;;;;;5.03;1.77;;;;;;;;;;5041673;28;20090;-77
2024/01/04 00:14:32;;;;;;;1.60;1.50;;;;;;;;;;5046993;28;20044;-77
2024/01/04 00:16:58;;;;;;;3.15;1.63;;;;;;;;;;5043685;28;20438;-77
2024/01/04 00:19:24;;;;;;;4.40;1.60;;;;;;;;;;5044116;28;20048;-77
2024/01/04 00:21:50;;;;;;;2.83;1.58;;;;;;;;;;5042087;28;20102;-77
2024/01/04 00:24:16;;;;;;;3.63;1.80;;;;;;;;;;5043102;28;20518;-78
2024/01/04 00:26:42;;;;;;;4.03;1.80;;;;;;;;;;5041806;28;20044;-77
2024/01/04 00:29:08;;;;;;;4.30;2.03;;;;;;;;;;5045753;28;20056;-77
2024/01/04 00:31:34;;;;;;;3.88;1.70;;;;;;;;;;5047303;28;20485;-77
2024/01/04 00:34:00;;;;;;;6.40;2.03;;;;;;;;;;5045348;28;20056;-77
2024/01/04 00:36:26;;;;;;;2.25;1.55;;;;;;;;;;5040522;28;20050;-78
2024/01/04 00:38:52;;;;;;;3.63;1.60;;;;;;;;;;5044548;28;20119;-77
2024/01/04 00:41:18;;;;;;;3.58;1.70;;;;;;;;;;5043781;28;20132;-78
2024/01/04 00:43:44;;;;;;;4.60;1.88;;;;;;;;;;5045610;28;20086;-77
2024/01/04 00:46:11;;;;;;;3.75;1.60;;;;;;;;;;5062543;28;20044;-77
2024/01/04 00:48:37;;;;;;;2.88;1.65;;;;;;;;;;5045742;28;20068;-77
2024/01/04 00:51:03;;;;;;;2.03;1.67;;;;;;;;;;5043101;28;20098;-77
2024/01/04 00:53:29;;;;;;;1.90;1.80;;;;;;;;;;5042924;28;20037;-77
2024/01/04 00:55:55;;;;;;;4.18;1.80;;;;;;;;;;5044058;28;20049;-77
2024/01/04 00:58:21;;;;;;;4.47;1.75;;;;;;;;;;5042276;28;20051;-77
2024/01/04 01:00:47;;;;;;;4.07;1.90;;;;;;;;;;5045200;28;20130;-77
2024/01/04 01:03:13;;;;;;;4.05;1.73;;;;;;;;;;5045070;28;20480;-77
2024/01/04 01:05:39;;;;;;;3.97;1.77;;;;;;;;;;5045092;28;20050;-77
2024/01/04 01:08:05;;;;;;;6.55;1.60;;;;;;;;;;5043925;28;20473;-77
2024/01/04 01:10:32;;;;;;;4.28;1.80;;;;;;;;;;5040348;28;20472;-77
2024/01/04 01:12:58;;;;;;;1.50;1.40;;;;;;;;;;5046999;28;20052;-77
2024/01/04 01:15:24;;;;;;;2.90;1.83;;;;;;;;;;5044562;28;20404;-77
2024/01/04 01:17:50;;;;;;;5.18;1.70;;;;;;;;;;5049094;28;20048;-77
2024/01/04 01:20:16;;;;;;;5.53;1.80;;;;;;;;;;5048237;28;20041;-77
2024/01/04 01:22:42;;;;;;;5.10;2.00;;;;;;;;;;5049687;28;20040;-77
2024/01/04 01:25:08;;;;;;;6.47;1.80;;;;;;;;;;5042186;28;20136;-78
2024/01/04 01:27:34;;;;;;;5.75;1.75;;;;;;;;;;5043705;28;20469;-77
2024/01/04 01:30:00;;;;;;;4.75;1.70;;;;;;;;;;5047851;28;20400;-77
2024/01/04 01:32:26;;;;;;;3.50;1.98;;;;;;;;;;5041789;28;20603;-77
2024/01/04 01:34:54;;;;;;;4.85;1.80;;;;;;;;;;5040277;28;20102;-77
2024/01/04 01:37:20;;;;;;;4.68;1.75;;;;;;;;;;5040696;28;20052;-77
2024/01/04 01:39:46;;;;;;;4.03;1.90;;;;;;;;;;5042304;28;20037;-77
2024/01/04 01:42:12;;;;;;;3.45;1.88;;;;;;;;;;5049477;28;20059;-77
2024/01/04 01:44:38;;;;;;;2.22;1.73;;;;;;;;;;5042820;28;20123;-77
2024/01/04 01:47:05;;;;;;;5.40;2.10;;;;;;;;;;5045534;28;20143;-77
2024/01/04 01:49:31;;;;;;;5.78;1.90;;;;;;;;;;5037457;28;20053;-77
2024/01/04 01:51:57;;;;;;;6.32;1.75;;;;;;;;;;5043895;28;20117;-77
2024/01/04 01:54:23;;;;;;;7.22;1.90;;;;;;;;;;5041496;28;20044;-77
2024/01/04 01:56:50;;;;;;;3.58;1.95;;;;;;;;;;5044091;28;20499;-77
2024/01/04 01:59:16;;;;;;;2.03;1.60;;;;;;;;;;5044750;28;20049;-77
2024/01/04 02:01:42;;;;;;;4.13;1.77;;;;;;;;;;5045187;28;20131;-77
2024/01/04 02:04:08;;;;;;;2.22;1.80;;;;;;;;;;5046761;28;20139;-77
2024/01/04 02:06:34;;;;;;;3.22;2.00;;;;;;;;;;5063096;28;20041;-78
2024/01/04 02:09:00;;;;;;;5.47;1.75;;;;;;;;;;5048520;28;20621;-77
2024/01/04 02:11:26;;;;;;;2.53;1.58;;;;;;;;;;5048258;28;20059;-77
2024/01/04 02:13:52;;;;;;;1.63;1.50;;;;;;;;;;5045184;28;20041;-77
2024/01/04 02:16:19;;;;;;;3.30;1.67;;;;;;;;;;5047588;28;20079;-77
2024/01/04 02:18:46;;;;;;;3.33;1.50;;;;;;;;;;5048447;28;20040;-77
2024/01/04 02:21:12;;;;;;;3.92;1.70;;;;;;;;;;5046106;28;20516;-77
2024/01/04 02:23:38;;;;;;;3.83;1.60;;;;;;;;;;5047804;28;20045;-77
2024/01/04 02:26:04;;;;;;;2.65;1.85;;;;;;;;;;5052748;28;20090;-77
2024/01/04 02:28:30;;;;;;;4.30;2.08;;;;;;;;;;5049134;28;20106;-77
2024/01/04 02:30:56;;;;;;;6.05;2.00;;;;;;;;;;5049412;28;20405;-77
2024/01/04 02:33:22;;;;;;;6.88;2.17;;;;;;;;;;5047974;28;20048;-77
2024/01/04 02:35:48;;;;;;;3.08;1.92;;;;;;;;;;5046785;28;20068;-77
2024/01/04 02:38:14;;;;;;;4.68;2.22;;;;;;;;;;5047725;28;20048;-77
2024/01/04 02:40:40;;;;;;;5.70;1.80;;;;;;;;;;5050752;28;20079;-77
2024/01/04 02:43:09;;;;;;;3.97;1.88;;;;;;;;;;5049902;28;20080;-77
2024/01/04 02:45:35;;;;;;;2.00;1.70;;;;;;;;;;5048543;28;20044;-77
2024/01/04 02:48:02;;;;;;;3.03;1.75;;;;;;;;;;5051151;28;20044;-77
2024/01/04 02:50:31;;;;;;;3.42;1.60;;;;;;;;;;5049942;28;20048;-78
2024/01/04 02:52:58;;;;;;;4.75;1.75;;;;;;;;;;5047656;28;20045;-77
2024/01/04 02:55:24;;;;;;;6.35;2.28;;;;;;;;;;5046152;28;20475;-77
2024/01/04 02:57:50;;;;;;;3.70;2.03;;;;;;;;;;5066547;28;20060;-77
2024/01/04 03:00:17;;;;;;;6.22;1.80;;;;;;;;;;5047782;28;20052;-77
2024/01/04 03:02:43;;;;;;;4.40;1.80;;;;;;;;;;5046887;28;20076;-77
2024/01/04 03:05:09;;;;;;;3.17;1.70;;;;;;;;;;5050093;28;20550;-77
2024/01/04 03:07:35;;;;;;;3.60;1.67;;;;;;;;;;5050338;28;20040;-77
2024/01/04 03:10:01;;;;;;;4.63;1.80;;;;;;;;;;5048779;28;20051;-77
2024/01/04 03:12:30;;;;;;;3.65;1.73;;;;;;;;;;5050134;28;20048;-78
2024/01/04 03:14:57;;;;;;;2.35;1.58;;;;;;;;;;5046962;28;20420;-77
2024/01/04 03:17:23;;;;;;;2.60;1.42;;;;;;;;;;5044939;28;20049;-77
2024/01/04 03:19:49;;;;;;;2.45;1.50;;;;;;;;;;5050378;28;20048;-77
2024/01/04 03:22:15;;;;;;;2.60;1.77;;;;;;;;;;5051156;28;20377;-77
2024/01/04 03:24:44;;;;;;;3.47;1.70;;;;;;;;;;5048806;28;20087;-77
2024/01/04 03:27:13;;;;;;;2.63;1.85;;;;;;;;;;5065248;28;20036;-77
2024/01/04 03:29:39;;;;;;;2.92;1.65;;;;;;;;;;5064193;28;20509;-77
2024/01/04 03:32:05;;;;;;;4.03;1.85;;;;;;;;;;5046667;28;20045;-77
2024/01/04 03:34:31;;;;;;;6.88;1.83;;;;;;;;;;5047772;28;20049;-77
2024/01/04 03:36:57;;;;;;;2.47;1.85;;;;;;;;;;5050778;28;20044;-77
2024/01/04 03:39:23;;;;;;;2.15;1.98;;;;;;;;;;5046039;28;20055;-77
2024/01/04 03:41:49;;;;;;;4.68;2.13;;;;;;;;;;5049832;28;20052;-78
2024/01/04 03:44:15;;;;;;;3.58;1.65;;;;;;;;;;5047930;28;20048;-77
2024/01/04 03:46:41;;;;;;;3.45;1.70;;;;;;;;;;5049721;28;20049;-77
2024/01/04 03:49:07;;;;;;;3.78;1.70;;;;;;;;;;5041312;28;20117;-77
2024/01/04 03:51:33;;;;;;;3.10;1.80;;;;;;;;;;5043202;28;20075;-77
2024/01/04 03:53:59;;;;;;;4.22;2.45;;;;;;;;;;5047618;28;20399;-77
2024/01/04 03:56:26;;;;;;;3.72;1.63;;;;;;;;;;5043343;28;20111;-77
2024/01/04 03:58:52;;;;;;;3.67;1.83;;;;;;;;;;5051821;28;20053;-77
2024/01/04 04:01:18;;;;;;;3.78;1.70;;;;;;;;;;5043699;28;20043;-77
2024/01/04 04:03:44;;;;;;;4.35;1.83;;;;;;;;;;5061068;28;20234;-77
2024/01/04 04:06:10;;;;;;;3.60;1.90;;;;;;;;;;5045441;28;20118;-77
2024/01/04 04:08:36;;;;;;;2.30;1.80;;;;;;;;;;5048972;28;20123;-77
2024/01/04 04:11:02;;;;;;;3.45;1.80;;;;;;;;;;5047578;28;20123;-77
2024/01/04 04:13:28;;;;;;;10.18;2.10;;;;;;;;;;5045010;28;20139;-77
2024/01/04 04:15:54;;;;;;;5.65;1.73;;;;;;;;;;5047778;28;20037;-77
2024/01/04 04:18:20;;;;;;;3.72;2.03;;;;;;;;;;5048105;28;20056;-77
2024/01/04 04:20:46;;;;;;;3.80;1.75;;;;;;;;;;5049485;28;20106;-78
2024/01/04 04:23:12;;;;;;;3.15;1.92;;;;;;;;;;5048132;28;20084;-77
2024/01/04 04:25:38;;;;;;;4.80;2.53;;;;;;;;;;5047268;28;20396;-77
2024/01/04 04:28:04;;;;;;;4.63;1.85;;;;;;;;;;5045433;28;20053;-77
2024/01/04 04:30:30;;;;;;;6.75;2.55;;;;;;;;;;5042398;28;20071;-77
2024/01/04 04:32:56;;;;;;;5.25;2.05;;;;;;;;;;5046573;28;20072;-77
2024/01/04 04:35:22;;;;;;;2.38;1.80;;;;;;;;;;5046459;28;20075;-77
2024/01/04 04:37:48;;;;;;;2.63;1.77;;;;;;;;;;5046213;28;20586;-77
2024/01/04 04:40:14;;;;;;;3.17;1.80;;;;;;;;;;5045433;28;20049;-78
2024/01/04 04:42:41;;;;;;;2.00;1.77;;;;;;;;;;5067448;28;20044;-78
2024/01/04 04:45:07;;;;;;;2.67;1.50;;;;;;;;;;5040932;28;20045;-78
2024/01/04 04:47:33;;;;;;;4.13;1.63;;;;;;;;;;5050183;28;20044;-77
2024/01/04 04:49:59;;;;;;;2.67;1.60;;;;;;;;;;5046657;28;20055;-77
2024/01/04 04:52:25;;;;;;;4.18;1.50;;;;;;;;;;5049478;28;20044;-78
2024/01/04 04:54:51;;;;;;;2.65;1.70;;;;;;;;;;5067671;28;20055;-78
2024/01/04 04:57:17;;;;;;;3.72;1.70;;;;;;;;;;5064134;28;20467;-77
2024/01/04 04:59:44;;;;;;;4.00;1.70;;;;;;;;;;5046899;28;20048;-78
2024/01/04 05:02:11;;;;;;;2.40;1.80;;;;;;;;;;5045012;28;20075;-77
2024/01/04 05:04:37;;;;;;;4.35;1.80;;;;;;;;;;5049769;28;20059;-78
2024/01/04 05:07:03;;;;;;;1.58;1.40;;;;;;;;;;5049022;28;20123;-78
2024/01/04 05:09:29;;;;;;;3.70;1.80;;;;;;;;;;5041709;28;20045;-78
2024/01/04 05:11:55;;;;;;;2.83;1.80;;;;;;;;;;5042847;28;20044;-78
2024/01/04 05:14:21;;;;;;;4.28;1.67;;;;;;;;;;5047363;28;20055;-78
2024/01/04 05:16:47;;;;;;;2.00;1.70;;;;;;;;;;5049704;28;20036;-77
2024/01/04 05:19:13;;;;;;;3.35;1.90;;;;;;;;;;5060791;28;20530;-78
2024/01/04 05:21:39;;;;;;;3.63;1.90;;;;;;;;;;5064417;28;20094;-77
2024/01/04 05:24:05;;;;;;;3.95;2.53;;;;;;;;;;5043696;28;20044;-77
2024/01/04 05:26:32;;;;;;;1.95;1.85;;;;;;;;;;5046995;28;20041;-77
2024/01/04 05:28:58;;;;;;;4.90;1.88;;;;;;;;;;5046284;28;20045;-77
2024/01/04 05:31:25;;;;;;;2.47;1.80;;;;;;;;;;5041205;28;20037;-78
2024/01/04 05:33:51;;;;;;;3.60;1.77;;;;;;;;;;5050261;28;20079;-77
2024/01/04 05:36:18;;;;;;;6.38;1.80;;;;;;;;;;5049255;28;20068;-77
2024/01/04 05:38:44;;;;;;;2.38;1.70;;;;;;;;;;5047533;28;20052;-77
2024/01/04 05:41:10;;;;;;;4.15;1.92;;;;;;;;;;5051806;28;20040;-77
2024/01/04 05:43:36;;;;;;;5.55;1.90;;;;;;;;;;5045669;28;20464;-77
2024/01/04 05:46:05;;;;;;;4.70;2.08;;;;;;;;;;5050014;28;20040;-77
2024/01/04 05:48:32;;;;;;;3.50;1.83;;;;;;;;;;5048108;28;20048;-77
2024/01/04 05:50:58;;;;;;;3.50;1.80;;;;;;;;;;5049432;28;20063;-77
2024/01/04 05:53:24;;;;;;;4.97;1.90;;;;;;;;;;5051385;28;20059;-77
2024/01/04 05:55:50;;;;;;;4.85;1.95;;;;;;;;;;5045202;28;20052;-77
2024/01/04 05:58:16;;;;;;;4.60;2.08;;;;;;;;;;5045235;28;20048;-77
2024/01/04 06:00:42;;;;;;;4.18;2.20;;;;;;;;;;5047989;28;20048;-77
2024/01/04 06:03:08;;;;;;;3.15;1.67;;;;;;;;;;5051267;28;20051;-77
2024/01/04 06:05:34;;;;;;;3.75;2.00;;;;;;;;;;5046603;28;20046;-78
2024/01/04 06:08:00;;;;;;;5.30;1.80;;;;;;;;;;5048939;28;20091;-77
2024/01/04 06:10:26;;;;;;;4.65;1.90;;;;;;;;;;5048615;28;20369;-77
2024/01/04 06:12:52;;;;;;;6.32;2.70;;;;;;;;;;5070092;28;20123;-77
2024/01/04 06:15:18;;;;;;;8.60;2.13;;;;;;;;;;5048997;28;20040;-77
2024/01/04 06:17:44;;;;;;;3.30;1.90;;;;;;;;;;5047387;28;20051;-78
2024/01/04 06:20:10;;;;;;;4.55;2.00;;;;;;;;;;5049096;28;20586;-77
2024/01/04 06:22:37;;;;;;;2.50;1.75;;;;;;;;;;5050707;28;20090;-78
2024/01/04 06:25:03;;;;;;;2.20;1.90;;;;;;;;;;5052750;28;20131;-77
2024/01/04 06:27:29;;;;;;;4.60;2.00;;;;;;;;;;5050811;28;20561;-78
2024/01/04 06:29:55;;;;;;;3.47;2.30;;;;;;;;;;5070065;28;20557;-77
2024/01/04 06:32:21;;;;;;;5.07;2.35;;;;;;;;;;5040985;28;20124;-77
2024/01/04 06:34:47;;;;;;;4.90;2.40;;;;;;;;;;5045831;28;20051;-77
2024/01/04 06:37:13;;;;;;;4.03;2.55;;;;;;;;;;5047788;28;20404;-78
2024/01/04 06:39:39;;;;;;;4.88;2.30;;;;;;;;;;5043313;28;20056;-77
2024/01/04 06:42:05;;;;;;;4.43;2.08;;;;;;;;;;5050538;28;20052;-77
2024/01/04 06:44:33;;;;;;;4.10;2.05;;;;;;;;;;5043897;28;20083;-77
2024/01/04 06:46:59;;;;;;;6.30;2.00;;;;;;;;;;5049975;28;20083;-77
2024/01/04 06:49:25;;;;;;;3.75;2.08;;;;;;;;;;5042698;28;20530;-77
2024/01/04 06:51:51;;;;;;;4.93;1.90;;;;;;;;;;5043298;28;20101;-78
2024/01/04 06:54:17;;;;;;;4.53;2.10;;;;;;;;;;5049338;28;20404;-78
2024/01/04 06:56:43;;;;;;;2.47;2.08;;;;;;;;;;5043849;28;20044;-78
2024/01/04 06:59:09;;;;;;;6.63;2.47;;;;;;;;;;5049773;28;20044;-78
2024/01/04 07:01:35;;;;;;;5.05;2.17;;;;;;;;;;5046134;28;20127;-78
2024/01/04 07:04:01;;;;;;;5.88;2.13;;;;;;;;;;5049353;28;20052;-78
2024/01/04 07:06:27;;;;;;;6.25;2.20;;;;;;;;;;5047363;28;20769;-78
2024/01/04 07:08:53;;;;;;;4.25;2.30;;;;;;;;;;5042371;28;20045;-77
2024/01/04 07:11:19;;;;;;;3.90;2.00;;;;;;;;;;5046164;28;20037;-77
2024/01/04 07:13:45;;;;;;;3.45;2.10;;;;;;;;;;5048998;28;20044;-78
2024/01/04 07:16:11;;;;;;;6.10;2.08;;;;;;;;;;5050001;28;20051;-78
2024/01/04 07:18:37;;;;;;;3.10;2.00;;;;;;;;;;5051154;28;20052;-78
2024/01/04 07:21:03;;;;;;;9.32;2.72;;;;;;;;;;5047210;28;20051;-78
2024/01/04 07:23:30;;;;;;;5.32;2.20;;;;;;;;;;5050959;28;20045;-77
2024/01/04 07:25:56;;;;;;;6.57;2.58;;;;;;;;;;5045254;28;20050;-78
2024/01/04 07:28:22;;;;;;;3.15;1.98;;;;;;;;;;5068626;28;20074;-77
2024/01/04 07:30:48;;;;;;;3.53;2.20;;;;;;;;;;5039851;28;20132;-77
2024/01/04 07:33:15;;;;;;;3.45;2.20;;;;;;;;;;5049890;28;20396;-78
2024/01/04 07:35:41;;;;;;;4.13;2.50;;;;;;;;;;5045514;28;20044;-77
2024/01/04 07:38:07;;;;;;;4.18;2.10;;;;;;;;;;5050491;28;20052;-78
2024/01/04 07:40:33;;;;;;;5.50;2.47;;;;;;;;;;5065864;28;20045;-78
2024/01/04 07:42:59;;;;;;;5.00;2.35;;;;;;;;;;5042557;28;20037;-77
2024/01/04 07:45:25;;;;;;;3.53;2.20;;;;;;;;;;5038761;28;20064;-77
2024/01/04 07:47:51;;;;;;;4.32;2.17;;;;;;;;;;5043383;28;20049;-77
2024/01/04 07:50:17;;;;;;;4.10;2.10;;;;;;;;;;5048608;28;20048;-78
2024/01/04 07:52:43;;;;;;;5.93;2.30;;;;;;;;;;5049278;28;20508;-77
2024/01/04 07:55:09;;;;;;;6.43;2.30;;;;;;;;;;5044244;28;20045;-78
2024/01/04 07:57:35;;;;;;;4.72;2.00;;;;;;;;;;5046278;28;20056;-79
2024/01/04 08:00:03;;;;;;;4.53;2.40;;;;;;;;;;5050401;28;20048;-79
2024/01/04 08:02:31;;;;;;;6.72;2.15;;;;;;;;;;5052952;28;20048;-78
2024/01/04 08:04:57;;;;;;;3.55;2.03;;;;;;;;;;5052786;28;20120;-77
2024/01/04 08:07:24;;;;;;;3.97;1.90;;;;;;;;;;5049927;28;20048;-77
2024/01/04 08:09:50;;;;;;;4.32;1.90;;;;;;;;;;5048682;28;20489;-78
2024/01/04 08:12:16;;;;;;;5.15;2.20;;;;;;;;;;5047146;28;20040;-77
2024/01/04 08:14:42;;;;;;;3.08;2.30;;;;;;;;;;5053277;28;20052;-77
2024/01/04 08:17:08;;;;;;;4.38;2.60;;;;;;;;;;5048706;28;20507;-78
2024/01/04 08:19:34;;;;;;;2.97;2.30;;;;;;;;;;5039946;28;20044;-78
2024/01/04 08:22:00;;;;;;;5.75;2.83;;;;;;;;;;5046406;28;20048;-78
2024/01/04 08:24:26;;;;;;;4.00;2.10;;;;;;;;;;5037547;28;20044;-77
2024/01/04 08:26:52;;;;;;;3.42;2.15;;;;;;;;;;5042434;28;20140;-77
2024/01/04 08:29:18;;;;;;;4.15;2.10;;;;;;;;;;5051412;28;20048;-78
2024/01/04 08:31:44;;;;;;;4.75;1.90;;;;;;;;;;5046879;28;20070;-78
2024/01/04 08:34:10;;;;;;;3.25;2.13;;;;;;;;;;5041681;28;20109;-78
2024/01/04 08:36:36;;;;;;;4.53;2.30;;;;;;;;;;5049167;28;20151;-78
2024/01/04 08:39:05;;;;;;;6.97;2.40;;;;;;;;;;5053077;28;20067;-76
2024/01/04 08:41:31;;;;;;;3.55;2.13;;;;;;;;;;5054368;28;20044;-77
2024/01/04 08:43:57;;;;;;;4.05;2.53;;;;;;;;;;5049560;28;20407;-77
2024/01/04 08:46:23;;;;;;;7.90;2.55;;;;;;;;;;5051725;28;20048;-78
2024/01/04 08:48:49;;;;;;;2.58;2.10;;;;;;;;;;5049962;28;20428;-77
2024/01/04 08:51:15;;;;;;;3.13;2.15;;;;;;;;;;5052675;28;20398;-78
2024/01/04 08:53:43;;;;;;;2.50;2.00;;;;;;;;;;5051849;28;20563;-78
2024/01/04 08:56:09;;;;;;;6.82;2.17;;;;;;;;;;5051510;28;20385;-78
2024/01/04 08:58:36;;;;;;;7.75;2.40;;;;;;;;;;5063194;28;20049;-77
2024/01/04 09:01:02;;;;;;;7.43;2.05;;;;;;;;;;5051019;28;20057;-78
2024/01/04 09:03:28;;;;;;;2.95;2.35;;;;;;;;;;5038366;28;20450;-78
2024/01/04 09:05:54;;;;;;;6.00;2.38;;;;;;;;;;5049105;28;20068;-78
2024/01/04 09:08:20;;;;;;;2.72;1.80;;;;;;;;;;5047711;28;20125;-78
2024/01/04 09:10:47;;;;;;;9.60;2.42;;;;;;;;;;5048697;28;20090;-79
2024/01/04 09:13:13;;;;;;;5.72;1.90;;;;;;;;;;5044785;28;20456;-79
2024/01/04 09:15:39;;;;;;;4.65;2.13;;;;;;;;;;5054893;28;20115;-78
2024/01/04 09:18:05;;;;;;;3.53;2.20;;;;;;;;;;5049353;28;20040;-79
2024/01/04 09:20:32;;;;;;;2.58;2.08;;;;;;;;;;5071654;28;20041;-78
2024/01/04 09:22:58;;;;;;;6.03;2.10;;;;;;;;;;5053565;28;20041;-78
2024/01/04 09:25:24;;;;;;;4.57;2.20;;;;;;;;;;5056140;28;20106;-79
2024/01/04 09:27:50;;;;;;;3.97;2.05;;;;;;;;;;5056778;28;20105;-78
2024/01/04 09:30:18;;;;;;;4.72;1.92;;;;;;;;;;5067233;28;20489;-78
2024/01/04 09:32:44;;;;;;;2.15;1.95;;;;;;;;;;5052198;28;20064;-79
2024/01/04 09:35:10;;;;;;;4.65;1.90;;;;;;;;;;5056996;28;20051;-79
2024/01/04 09:37:36;;;;;;;4.32;2.22;;;;;;;;;;5046303;28;20558;-79
2024/01/04 09:40:03;;;;;;;2.60;2.20;;;;;;;;;;5044759;28;20388;-78
2024/01/04 09:42:31;;;;;;;4.40;2.65;;;;;;;;;;5048680;28;20088;-78
2024/01/04 09:44:58;;;;;;;4.03;2.55;;;;;;;;;;5049320;28;20067;-78
2024/01/04 09:47:25;;;;;;;5.13;3.05;;;;;;;;;;5046523;28;20159;-78
2024/01/04 09:49:51;;;;;;;3.55;2.40;;;;;;;;;;5045311;28;20059;-78
2024/01/04 09:52:18;;;;;;;2.28;2.10;;;;;;;;;;5045763;28;20047;-78
2024/01/04 09:54:45;;;;;;;2.17;1.98;;;;;;;;;;5051868;28;20426;-78
2024/01/04 09:57:11;;;;;;;4.50;2.00;;;;;;;;;;5050130;28;20771;-78
2024/01/04 09:59:37;;;;;;;4.63;2.20;;;;;;;;;;5053397;28;20045;-78
2024/01/04 10:02:03;;;;;;;4.28;2.45;;;;;;;;;;5066439;28;20052;-78
2024/01/04 10:04:30;;;;;;;3.70;2.40;;;;;;;;;;5042146;28;20056;-78
2024/01/04 10:07:00;;;;;;;2.60;2.10;;;;;;;;;;5053000;28;20069;-78
2024/01/04 10:09:38;;;;;;;5.30;2.33;;;;;;;;;;5050584;28;20411;-78
2024/01/04 10:12:07;;;;;;;4.22;2.05;;;;;;;;;;5045287;28;20056;-78
2024/01/04 10:14:34;;;;;;;2.83;2.25;;;;;;;;;;5046796;28;20060;-78
2024/01/04 10:17:00;;;;;;;2.83;2.30;;;;;;;;;;5046770;28;20151;-78
2024/01/04 10:19:27;;;;;;;3.72;2.00;;;;;;;;;;5043761;28;20053;-78
2024/01/04 10:21:56;;;;;;;7.10;2.15;;;;;;;;;;5070631;28;20078;-78
2024/01/04 10:24:23;;;;;;;6.70;2.45;;;;;;;;;;5047185;28;20093;-78
2024/01/04 10:26:59;;;;;;;5.90;2.40;;;;;;;;;;5051061;28;20059;-78
2024/01/04 10:29:26;;;;;;;5.03;2.60;;;;;;;;;;5068411;28;20049;-78
2024/01/04 10:32:03;;;;;;;4.38;2.50;;;;;;;;;;5053109;28;20452;-78
2024/01/04 10:34:29;;;;;;;5.78;2.33;;;;;;;;;;5048591;28;20113;-77
2024/01/04 10:37:08;;;;;;;5.28;1.88;;;;;;;;;;5049915;28;20036;-78
2024/01/04 10:39:34;;;;;;;4.30;2.42;;;;;;;;;;5046931;28;20131;-78
2024/01/04 10:42:01;;;;;;;2.35;2.10;;;;;;;;;;5051803;28;20503;-78
2024/01/04 10:44:28;;;;;;;3.60;2.35;;;;;;;;;;5051449;28;20059;-78
2024/01/04 10:46:59;;;;;;;3.60;2.20;;;;;;;;;;5049387;28;20094;-78
2024/01/04 10:49:25;;;;;;;3.50;2.20;;;;;;;;;;5050605;28;20477;-78
2024/01/04 10:51:52;;;;;;;4.00;2.38;;;;;;;;;;5052454;28;20040;-78
2024/01/04 10:54:22;;;;;;;4.05;1.95;;;;;;;;;;5050133;28;20366;-78
2024/01/04 10:56:48;;;;;;;5.05;1.90;;;;;;;;;;5051716;28;20044;-77
2024/01/04 10:59:16;;;;;;;2.00;1.80;;;;;;;;;;5045302;28;20045;-78
2024/01/04 11:01:44;;;;;;;5.35;2.17;;;;;;;;;;5047278;28;20060;-78
2024/01/04 11:04:11;;;;;;;5.32;2.78;;;;;;;;;;5053429;28;20076;-77
2024/01/04 11:06:40;;;;;;;4.40;2.10;;;;;;;;;;5043454;28;20044;-78
2024/01/04 11:09:09;;;;;;;4.68;2.20;;;;;;;;;;5042642;28;20234;-78
2024/01/04 11:11:36;;;;;;;2.38;1.98;;;;;;;;;;5043555;28;20369;-78
2024/01/04 11:14:02;;;;;;;4.30;2.40;;;;;;;;;;5051567;28;20161;-78
2024/01/04 11:16:34;;;;;;;5.88;2.13;;;;;;;;;;5065899;28;20047;-78
2024/01/04 11:19:09;;;;;;;3.72;1.98;;;;;;;;;;5066717;28;20555;-78
2024/01/04 11:21:55;;;;;;;4.75;2.17;;;;;;;;;;5052268;28;20087;-78
2024/01/04 11:24:34;;;;;;;7.07;2.10;;;;;;;;;;5064526;28;20098;-78
2024/01/04 11:27:03;;;;;;;4.07;2.00;;;;;;;;;;5048071;28;20119;-78
2024/01/04 11:29:30;;;;;;;4.97;2.15;;;;;;;;;;5048403;28;20500;-78
2024/01/04 11:31:59;;;;;;;4.05;2.30;;;;;;;;;;5050712;28;20075;-78
2024/01/04 11:34:26;;;;;;;5.85;2.20;;;;;;;;;;5065404;28;20051;-79
2024/01/04 11:37:08;;;;;;;6.03;2.58;;;;;;;;;;5045728;28;20060;-78
2024/01/04 11:39:34;;;;;;;7.13;3.03;;;;;;;;;;5048548;28;20037;-79
2024/01/04 11:42:00;;;;;;;6.47;2.30;;;;;;;;;;5051741;28;20552;-79
2024/01/04 11:44:36;;;;;;;2.92;1.75;;;;;;;;;;5065277;28;20056;-79
2024/01/04 11:47:03;;;;;;;6.43;2.35;;;;;;;;;;5047097;28;20048;-78
2024/01/04 11:49:29;;;;;;;6.55;2.20;;;;;;;;;;5054531;28;20401;-77
2024/01/04 11:52:04;;;;;;;4.07;2.30;;;;;;;;;;5048098;28;20045;-79
2024/01/04 11:54:31;;;;;;;4.65;2.42;;;;;;;;;;5051420;28;20045;-79
2024/01/04 11:56:57;;;;;;;4.50;2.05;;;;;;;;;;5058528;28;20033;-79
2024/01/04 11:59:32;;;;;;;4.22;2.05;;;;;;;;;;5062083;28;20048;-79
2024/01/04 12:01:58;;;;;;;4.10;2.05;;;;;;;;;;5051685;28;20434;-79
2024/01/04 12:04:24;;;;;;;3.92;2.00;;;;;;;;;;5049246;28;20079;-79
2024/01/04 12:06:50;;;;;;;4.10;1.98;;;;;;;;;;5050011;28;20048;-79
2024/01/04 12:09:16;;;;;;;4.57;1.90;;;;;;;;;;5046608;28;20044;-79
2024/01/04 12:11:45;;;;;;;4.90;2.45;;;;;;;;;;5047932;28;20441;-79
2024/01/04 12:14:12;;;;;;;6.28;2.33;;;;;;;;;;5045609;28;20045;-75
2024/01/04 12:16:39;;;;;;;6.18;2.30;;;;;;;;;;5060579;28;20097;-80
2024/01/04 12:19:06;;;;;;;4.53;2.25;;;;;;;;;;5042686;28;20532;-80
2024/01/04 12:21:33;;;;;;;4.63;2.80;;;;;;;;;;5041815;28;20053;-80
2024/01/04 12:23:59;;;;;;;2.95;2.22;;;;;;;;;;5062255;28;20068;-79
2024/01/04 12:26:26;;;;;;;8.00;2.33;;;;;;;;;;5061378;28;20518;-79
2024/01/04 12:28:53;;;;;;;5.25;2.33;;;;;;;;;;5049107;28;20048;-79
2024/01/04 12:31:22;;;;;;;2.30;2.10;;;;;;;;;;5047027;28;20056;-79
2024/01/04 12:33:51;;;;;;;5.68;2.50;;;;;;;;;;5049123;28;20396;-80
2024/01/04 12:36:21;;;;;;;6.05;2.40;;;;;;;;;;5052264;28;20122;-78
2024/01/04 12:38:48;;;;;;;7.22;2.30;;;;;;;;;;5067061;28;20102;-78
2024/01/04 12:41:25;;;;;;;2.90;2.13;;;;;;;;;;5051447;28;20477;-78
2024/01/04 12:43:53;;;;;;;4.00;2.20;;;;;;;;;;5047412;28;20055;-78
2024/01/04 12:46:20;;;;;;;4.88;2.10;;;;;;;;;;5047868;28;20049;-77
2024/01/04 12:48:46;;;;;;;2.13;1.90;;;;;;;;;;5066956;28;20137;-77
2024/01/04 12:51:14;;;;;;;8.57;2.90;;;;;;;;;;5042768;28;20148;-78
2024/01/04 12:53:41;;;;;;;6.05;2.67;;;;;;;;;;5044706;28;20053;-76
2024/01/04 12:56:09;;;;;;;6.28;2.28;;;;;;;;;;5045309;28;20075;-79
2024/01/04 12:58:35;;;;;;;4.05;2.30;;;;;;;;;;5051568;28;20158;-80
2024/01/04 13:01:02;;;;;;;4.97;2.40;;;;;;;;;;5046351;28;20052;-79
2024/01/04 13:03:28;;;;;;;7.00;2.60;;;;;;;;;;5044112;28;20056;-79
2024/01/04 13:05:54;;;;;;;4.57;2.60;;;;;;;;;;5050736;28;20454;-79
2024/01/04 13:08:20;;;;;;;5.93;2.85;;;;;;;;;;5046885;28;20083;-79
2024/01/04 13:10:46;;;;;;;3.90;2.50;;;;;;;;;;5066290;28;20131;-78
2024/01/04 13:13:13;;;;;;;6.00;2.63;;;;;;;;;;5045977;28;20243;-78
2024/01/04 13:15:39;;;;;;;4.10;2.20;;;;;;;;;;5046772;28;20480;-78
2024/01/04 13:18:06;;;;;;;6.18;2.60;;;;;;;;;;5042906;28;20495;-78
2024/01/04 13:20:32;;;;;;;6.57;2.80;;;;;;;;;;5046404;28;20551;-78
2024/01/04 13:22:58;;;;;;;4.25;2.20;;;;;;;;;;5048876;28;20045;-78
2024/01/04 13:25:24;;;;;;;5.93;2.67;;;;;;;;;;5049260;28;20067;-78
2024/01/04 13:27:50;;;;;;;6.97;2.50;;;;;;;;;;5050421;28;20037;-78
2024/01/04 13:30:16;;;;;;;6.93;2.53;;;;;;;;;;5046170;28;20086;-78
2024/01/04 13:32:42;;;;;;;2.80;2.28;;;;;;;;;;5044825;28;20051;-78
2024/01/04 13:35:08;;;;;;;4.05;2.67;;;;;;;;;;5068697;28;20045;-78
2024/01/04 13:37:34;;;;;;;5.45;2.88;;;;;;;;;;5049009;28;20385;-78
2024/01/04 13:40:00;;;;;;;5.82;2.50;;;;;;;;;;5049672;28;20048;-78
2024/01/04 13:42:26;;;;;;;5.15;2.60;;;;;;;;;;5047888;28;21782;-78
2024/01/04 13:44:52;;;;;;;3.88;2.20;;;;;;;;;;5047725;28;20051;-78
2024/01/04 13:47:18;;;;;;;6.78;2.30;;;;;;;;;;5044173;28;20045;-78
2024/01/04 13:49:47;;;;;;;4.40;2.65;;;;;;;;;;5045300;28;20314;-78
2024/01/04 13:52:13;;;;;;;5.85;2.30;;;;;;;;;;5049439;28;20086;-78
2024/01/04 13:54:41;;;;;;;5.38;2.38;;;;;;;;;;5047502;28;20037;-78
2024/01/04 13:57:07;;;;;;;3.00;2.15;;;;;;;;;;5048140;28;20843;-78
2024/01/04 13:59:33;;;;;;;3.95;1.90;;;;;;;;;;5066320;28;20043;-78
2024/01/04 14:02:00;;;;;;;4.97;2.60;;;;;;;;;;5070463;28;20408;-78
2024/01/04 14:04:26;;;;;;;3.75;2.50;;;;;;;;;;5050846;28;20359;-77
2024/01/04 14:06:52;;;;;;;5.57;3.40;;;;;;;;;;5043563;28;20044;-77
2024/01/04 14:09:18;;;;;;;5.57;2.20;;;;;;;;;;5051294;28;20041;-76
2024/01/04 14:11:44;;;;;;;5.13;2.25;;;;;;;;;;5044205;28;20053;-76
2024/01/04 14:14:11;;;;;;;4.65;2.85;;;;;;;;;;5046202;28;20476;-76
2024/01/04 14:16:37;;;;;;;5.85;2.70;;;;;;;;;;5050783;28;20520;-77
2024/01/04 14:19:03;;;;;;;5.40;3.47;;;;;;;;;;5048444;28;20040;-78
2024/01/04 14:21:29;;;;;;;5.82;3.40;;;;;;;;;;5045677;28;20105;-78
2024/01/04 14:23:56;;;;;;;6.47;3.15;;;;;;;;;;5053246;28;20052;-78
2024/01/04 14:26:22;;;;;;;6.90;3.38;;;;;;;;;;5047301;28;20123;-77
2024/01/04 14:28:48;;;;;;;3.53;2.72;;;;;;;;;;5072520;28;20170;-77
2024/01/04 14:31:14;;;;;;;8.57;3.00;;;;;;;;;;5040286;28;20048;-77
2024/01/04 14:33:40;;;;;;;8.05;2.90;;;;;;;;;;5052861;28;20139;-77
2024/01/04 14:36:12;;;;;;;6.05;2.70;;;;;;;;;;5054877;28;20511;-77
2024/01/04 14:38:38;;;;;;;4.63;2.70;;;;;;;;;;5056809;28;20040;-77
2024/01/04 14:41:05;;;;;;;3.88;2.88;;;;;;;;;;5050442;28;20128;-77